< Cyclone 198509 1985 Season Cyclone 198511 >
Cyclone 198510 (PIERRE)
General InformationTrack Information on Google MapsList of All Images || ResourceGoogle EarthGE AnimationAtom FeedGeoJSON
Detalied Best Track (Time Zone = UTC)
Year Month Day Hour Lat. Long. Pressure (hPa) Wind (kt) Class Image Chart
1985 2 18 06 -11.7 143.3 1002 0 0 Image --
1985 2 18 12 -11.7 143.7 1002 0 0 Image --
1985 2 18 18 -11.9 144.4 1002 0 0 Image --
1985 2 19 00 -12.2 145.1 1004 0 0 Image --
1985 2 19 06 -12.8 145.7 1001 0 0 Image --
1985 2 19 12 -13.3 145.9 1000 0 0 Image --
1985 2 19 18 -13.9 146.2 999 0 0 Image --
1985 2 20 00 -14.6 146.4 998 0 0 Image --
1985 2 20 06 -15.3 146.7 995 0 0 Image --
1985 2 20 12 -16.2 147.2 995 0 0 Image --
1985 2 20 18 -17.2 147.8 991 0 0 Image --
1985 2 21 00 -18.4 148.6 986 0 0 Image --
1985 2 21 06 -20.1 149.5 986 0 0 Image --
1985 2 21 12 -21.2 150.1 990 0 0 Image --
1985 2 21 18 -22.1 150.3 995 0 0 Image --
1985 2 21 21 -22.6 150.6 998 0 0 Image --
1985 2 22 00 -22.9 151.0 999 0 0 Image --
1985 2 22 06 -23.2 152.0 1000 0 0 Image --
1985 2 22 12 -23.4 153.0 1001 0 0 Image --
1985 2 22 18 -23.5 154.0 1001 0 0 Image --
1985 2 23 00 -23.6 155.0 1003 0 0 Image --
1985 2 23 06 -23.6 156.0 1003 0 0 Image --
1985 2 23 12 -23.4 156.9 1005 0 0 Image --
1985 2 23 18 -23.4 157.8 1005 0 0 Image --
1985 2 24 00 -23.4 158.5 1005 0 0 Image --
1985 2 24 06 -23.7 160.0 1003 0 0 Image --
< Cyclone 198509 1985 Season Cyclone 198511 >

Help